sensor_id;sensor_type;location;lat;lon;timestamp;temperature;humidity
2477;DHT22;1249;51.270;6.756;2022-09-03T00:01:57;24.80;61.80
2477;DHT22;1249;51.270;6.756;2022-09-03T00:04:27;24.90;61.60
2477;DHT22;1249;51.270;6.756;2022-09-03T00:07:00;24.80;61.90
2477;DHT22;1249;51.270;6.756;2022-09-03T00:09:32;24.80;62.10
2477;DHT22;1249;51.270;6.756;2022-09-03T00:12:05;24.80;61.30
2477;DHT22;1249;51.270;6.756;2022-09-03T00:14:37;24.80;61.80
2477;DHT22;1249;51.270;6.756;2022-09-03T00:17:09;24.80;61.90
2477;DHT22;1249;51.270;6.756;2022-09-03T00:19:41;24.80;62.00
2477;DHT22;1249;51.270;6.756;2022-09-03T00:22:14;24.70;61.60
2477;DHT22;1249;51.270;6.756;2022-09-03T00:24:43;24.70;61.60
2477;DHT22;1249;51.270;6.756;2022-09-03T00:27:15;24.70;61.60
2477;DHT22;1249;51.270;6.756;2022-09-03T00:29:47;24.70;61.40
2477;DHT22;1249;51.270;6.756;2022-09-03T00:32:20;24.70;61.70
2477;DHT22;1249;51.270;6.756;2022-09-03T00:34:55;24.70;61.40
2477;DHT22;1249;51.270;6.756;2022-09-03T00:37:23;24.70;61.70
2477;DHT22;1249;51.270;6.756;2022-09-03T00:39:51;24.60;61.90
2477;DHT22;1249;51.270;6.756;2022-09-03T00:42:31;24.60;61.70
2477;DHT22;1249;51.270;6.756;2022-09-03T00:45:08;24.60;61.40
2477;DHT22;1249;51.270;6.756;2022-09-03T00:47:47;24.60;61.50
2477;DHT22;1249;51.270;6.756;2022-09-03T00:50:20;24.70;61.50
2477;DHT22;1249;51.270;6.756;2022-09-03T00:52:59;24.60;61.40
2477;DHT22;1249;51.270;6.756;2022-09-03T00:55:37;24.60;59.90
2477;DHT22;1249;51.270;6.756;2022-09-03T00:58:26;24.60;61.60
2477;DHT22;1249;51.270;6.756;2022-09-03T01:00:58;24.50;60.30
2477;DHT22;1249;51.270;6.756;2022-09-03T01:03:33;24.50;61.40
2477;DHT22;1249;51.270;6.756;2022-09-03T01:06:12;24.50;61.40
2477;DHT22;1249;51.270;6.756;2022-09-03T01:08:55;24.50;61.60
2477;DHT22;1249;51.270;6.756;2022-09-03T01:11:31;24.50;61.80
2477;DHT22;1249;51.270;6.756;2022-09-03T01:14:10;24.50;61.90
2477;DHT22;1249;51.270;6.756;2022-09-03T01:16:47;24.40;61.60
2477;DHT22;1249;51.270;6.756;2022-09-03T01:19:40;24.40;61.90
2477;DHT22;1249;51.270;6.756;2022-09-03T01:22:25;24.40;61.70
2477;DHT22;1249;51.270;6.756;2022-09-03T01:25:14;24.40;61.90
2477;DHT22;1249;51.270;6.756;2022-09-03T01:27:57;24.30;61.90
2477;DHT22;1249;51.270;6.756;2022-09-03T01:30:25;24.40;62.40
2477;DHT22;1249;51.270;6.756;2022-09-03T01:32:57;24.30;62.20
2477;DHT22;1249;51.270;6.756;2022-09-03T01:35:32;24.30;62.00
2477;DHT22;1249;51.270;6.756;2022-09-03T01:38:10;24.30;62.30
2477;DHT22;1249;51.270;6.756;2022-09-03T01:43:29;24.30;62.90
2477;DHT22;1249;51.270;6.756;2022-09-03T01:46:02;24.30;62.80
2477;DHT22;1249;51.270;6.756;2022-09-03T01:48:40;24.30;62.90
2477;DHT22;1249;51.270;6.756;2022-09-03T01:51:16;24.30;63.00
2477;DHT22;1249;51.270;6.756;2022-09-03T01:54:06;24.30;62.90
2477;DHT22;1249;51.270;6.756;2022-09-03T01:56:49;24.30;62.80
2477;DHT22;1249;51.270;6.756;2022-09-03T01:59:28;24.30;62.80
2477;DHT22;1249;51.270;6.756;2022-09-03T02:02:02;24.30;62.70
2477;DHT22;1249;51.270;6.756;2022-09-03T02:04:32;24.20;63.00
2477;DHT22;1249;51.270;6.756;2022-09-03T02:07:00;24.20;63.10
2477;DHT22;1249;51.270;6.756;2022-09-03T02:09:29;24.20;63.10
2477;DHT22;1249;51.270;6.756;2022-09-03T02:12:00;24.20;63.10
2477;DHT22;1249;51.270;6.756;2022-09-03T02:14:29;24.20;63.30
2477;DHT22;1249;51.270;6.756;2022-09-03T02:16:58;24.20;63.20
2477;DHT22;1249;51.270;6.756;2022-09-03T02:19:27;24.20;63.40
2477;DHT22;1249;51.270;6.756;2022-09-03T02:21:57;24.10;63.30
2477;DHT22;1249;51.270;6.756;2022-09-03T02:24:24;24.10;63.50
2477;DHT22;1249;51.270;6.756;2022-09-03T02:26:52;24.10;63.40
2477;DHT22;1249;51.270;6.756;2022-09-03T02:29:20;24.10;63.40
2477;DHT22;1249;51.270;6.756;2022-09-03T02:31:49;24.10;63.40
2477;DHT22;1249;51.270;6.756;2022-09-03T02:34:15;24.10;63.50
2477;DHT22;1249;51.270;6.756;2022-09-03T02:36:44;24.10;63.60
2477;DHT22;1249;51.270;6.756;2022-09-03T02:39:12;24.10;63.50
2477;DHT22;1249;51.270;6.756;2022-09-03T02:41:39;24.00;63.10
2477;DHT22;1249;51.270;6.756;2022-09-03T02:44:11;24.00;63.60
2477;DHT22;1249;51.270;6.756;2022-09-03T02:46:40;24.00;63.70
2477;DHT22;1249;51.270;6.756;2022-09-03T02:49:10;24.00;63.70
2477;DHT22;1249;51.270;6.756;2022-09-03T02:51:39;24.00;63.70
2477;DHT22;1249;51.270;6.756;2022-09-03T02:54:07;24.00;63.70
2477;DHT22;1249;51.270;6.756;2022-09-03T02:56:34;24.00;63.70
2477;DHT22;1249;51.270;6.756;2022-09-03T02:59:01;24.00;63.90
2477;DHT22;1249;51.270;6.756;2022-09-03T03:01:28;24.00;64.00
2477;DHT22;1249;51.270;6.756;2022-09-03T03:03:55;23.90;64.00
2477;DHT22;1249;51.270;6.756;2022-09-03T03:06:24;23.90;64.10
2477;DHT22;1249;51.270;6.756;2022-09-03T03:08:52;23.90;64.20
2477;DHT22;1249;51.270;6.756;2022-09-03T03:11:21;23.90;64.20
2477;DHT22;1249;51.270;6.756;2022-09-03T03:13:50;23.80;64.10
2477;DHT22;1249;51.270;6.756;2022-09-03T03:16:17;23.80;64.20
2477;DHT22;1249;51.270;6.756;2022-09-03T03:18:44;23.80;64.20
2477;DHT22;1249;51.270;6.756;2022-09-03T03:21:13;23.80;64.30
2477;DHT22;1249;51.270;6.756;2022-09-03T03:23:41;23.80;64.50
2477;DHT22;1249;51.270;6.756;2022-09-03T03:26:11;23.80;64.40
2477;DHT22;1249;51.270;6.756;2022-09-03T03:28:38;23.80;64.60
2477;DHT22;1249;51.270;6.756;2022-09-03T03:31:07;23.80;64.70
2477;DHT22;1249;51.270;6.756;2022-09-03T03:33:34;23.80;64.60
2477;DHT22;1249;51.270;6.756;2022-09-03T03:36:05;23.80;64.50
2477;DHT22;1249;51.270;6.756;2022-09-03T03:38:33;23.80;64.80
2477;DHT22;1249;51.270;6.756;2022-09-03T03:41:06;23.80;65.00
2477;DHT22;1249;51.270;6.756;2022-09-03T03:43:33;23.80;65.00
2477;DHT22;1249;51.270;6.756;2022-09-03T03:46:00;23.80;65.00
2477;DHT22;1249;51.270;6.756;2022-09-03T03:48:27;23.70;64.90
2477;DHT22;1249;51.270;6.756;2022-09-03T03:50:54;23.70;64.80
2477;DHT22;1249;51.270;6.756;2022-09-03T03:53:21;23.70;64.70
2477;DHT22;1249;51.270;6.756;2022-09-03T03:55:54;23.60;64.90
2477;DHT22;1249;51.270;6.756;2022-09-03T03:58:23;23.60;64.90
2477;DHT22;1249;51.270;6.756;2022-09-03T04:00:51;23.60;65.10
2477;DHT22;1249;51.270;6.756;2022-09-03T04:03:18;23.60;65.10
2477;DHT22;1249;51.270;6.756;2022-09-03T04:05:54;23.60;65.10
2477;DHT22;1249;51.270;6.756;2022-09-03T04:08:21;23.60;65.30
2477;DHT22;1249;51.270;6.756;2022-09-03T04:10:48;23.60;65.30
2477;DHT22;1249;51.270;6.756;2022-09-03T04:13:15;23.60;65.40
2477;DHT22;1249;51.270;6.756;2022-09-03T04:15:44;23.50;65.40
2477;DHT22;1249;51.270;6.756;2022-09-03T04:18:11;23.60;65.30
2477;DHT22;1249;51.270;6.756;2022-09-03T04:20:38;23.50;65.60
2477;DHT22;1249;51.270;6.756;2022-09-03T04:23:05;23.50;65.60
2477;DHT22;1249;51.270;6.756;2022-09-03T04:25:32;23.50;65.80
2477;DHT22;1249;51.270;6.756;2022-09-03T04:27:59;23.50;66.00
2477;DHT22;1249;51.270;6.756;2022-09-03T04:30:28;23.50;66.00
2477;DHT22;1249;51.270;6.756;2022-09-03T04:32:56;23.50;66.00
2477;DHT22;1249;51.270;6.756;2022-09-03T04:35:25;23.40;66.00
2477;DHT22;1249;51.270;6.756;2022-09-03T04:37:58;23.40;66.10
2477;DHT22;1249;51.270;6.756;2022-09-03T04:40:25;23.30;66.00
2477;DHT22;1249;51.270;6.756;2022-09-03T04:42:56;23.30;66.10
2477;DHT22;1249;51.270;6.756;2022-09-03T04:45:23;23.30;66.10
2477;DHT22;1249;51.270;6.756;2022-09-03T04:47:59;23.30;66.20
2477;DHT22;1249;51.270;6.756;2022-09-03T04:50:26;23.30;66.10
2477;DHT22;1249;51.270;6.756;2022-09-03T04:52:54;23.30;66.10
2477;DHT22;1249;51.270;6.756;2022-09-03T04:55:22;23.30;65.90
2477;DHT22;1249;51.270;6.756;2022-09-03T04:57:50;23.30;66.30
2477;DHT22;1249;51.270;6.756;2022-09-03T05:00:17;23.20;66.10
2477;DHT22;1249;51.270;6.756;2022-09-03T05:02:45;23.20;66.20
2477;DHT22;1249;51.270;6.756;2022-09-03T05:05:15;23.20;63.00
2477;DHT22;1249;51.270;6.756;2022-09-03T05:07:42;23.10;62.50
2477;DHT22;1249;51.270;6.756;2022-09-03T05:10:10;23.10;61.90
2477;DHT22;1249;51.270;6.756;2022-09-03T05:12:45;23.10;60.60
2477;DHT22;1249;51.270;6.756;2022-09-03T05:15:12;23.00;60.30
2477;DHT22;1249;51.270;6.756;2022-09-03T05:17:39;23.00;60.30
2477;DHT22;1249;51.270;6.756;2022-09-03T05:20:06;23.00;60.70
2477;DHT22;1249;51.270;6.756;2022-09-03T05:22:36;23.00;62.00
2477;DHT22;1249;51.270;6.756;2022-09-03T05:25:03;23.00;63.30
2477;DHT22;1249;51.270;6.756;2022-09-03T05:27:30;23.10;64.10
2477;DHT22;1249;51.270;6.756;2022-09-03T05:29:57;23.10;65.80
2477;DHT22;1249;51.270;6.756;2022-09-03T05:32:24;23.10;65.20
2477;DHT22;1249;51.270;6.756;2022-09-03T05:34:53;23.20;64.70
2477;DHT22;1249;51.270;6.756;2022-09-03T05:37:20;23.20;64.30
2477;DHT22;1249;51.270;6.756;2022-09-03T05:39:49;23.20;64.10
2477;DHT22;1249;51.270;6.756;2022-09-03T05:42:16;23.20;64.00
2477;DHT22;1249;51.270;6.756;2022-09-03T05:44:42;23.20;63.70
2477;DHT22;1249;51.270;6.756;2022-09-03T05:47:09;23.30;64.00
2477;DHT22;1249;51.270;6.756;2022-09-03T05:49:36;23.30;63.40
2477;DHT22;1249;51.270;6.756;2022-09-03T05:52:04;23.30;63.40
2477;DHT22;1249;51.270;6.756;2022-09-03T05:54:31;23.30;63.40
2477;DHT22;1249;51.270;6.756;2022-09-03T05:56:59;23.40;63.20
2477;DHT22;1249;51.270;6.756;2022-09-03T05:59:26;23.40;61.90
2477;DHT22;1249;51.270;6.756;2022-09-03T06:01:53;23.40;63.10
2477;DHT22;1249;51.270;6.756;2022-09-03T06:04:20;23.50;62.80
2477;DHT22;1249;51.270;6.756;2022-09-03T06:06:47;23.50;62.80
2477;DHT22;1249;51.270;6.756;2022-09-03T06:09:16;23.60;62.70
2477;DHT22;1249;51.270;6.756;2022-09-03T06:11:44;23.60;62.90
2477;DHT22;1249;51.270;6.756;2022-09-03T06:14:13;23.60;62.90
2477;DHT22;1249;51.270;6.756;2022-09-03T06:16:42;23.60;62.40
2477;DHT22;1249;51.270;6.756;2022-09-03T06:19:10;23.60;62.70
2477;DHT22;1249;51.270;6.756;2022-09-03T06:21:39;23.70;62.30
2477;DHT22;1249;51.270;6.756;2022-09-03T06:24:09;23.70;62.30
2477;DHT22;1249;51.270;6.756;2022-09-03T06:26:36;23.80;62.40
2477;DHT22;1249;51.270;6.756;2022-09-03T06:29:03;23.80;61.30
2477;DHT22;1249;51.270;6.756;2022-09-03T06:31:32;23.70;59.10
2477;DHT22;1249;51.270;6.756;2022-09-03T06:34:00;23.70;58.70
2477;DHT22;1249;51.270;6.756;2022-09-03T06:36:27;23.70;57.80
2477;DHT22;1249;51.270;6.756;2022-09-03T06:38:55;23.70;57.00
2477;DHT22;1249;51.270;6.756;2022-09-03T06:41:23;23.70;56.90
2477;DHT22;1249;51.270;6.756;2022-09-03T06:43:53;23.70;56.40
2477;DHT22;1249;51.270;6.756;2022-09-03T06:46:22;23.60;55.50
2477;DHT22;1249;51.270;6.756;2022-09-03T06:48:51;23.60;56.00
2477;DHT22;1249;51.270;6.756;2022-09-03T06:51:19;23.60;56.00
2477;DHT22;1249;51.270;6.756;2022-09-03T06:53:47;23.60;55.90
2477;DHT22;1249;51.270;6.756;2022-09-03T06:56:16;23.50;55.90
2477;DHT22;1249;51.270;6.756;2022-09-03T06:58:45;23.60;56.00
2477;DHT22;1249;51.270;6.756;2022-09-03T07:01:14;23.60;56.30
2477;DHT22;1249;51.270;6.756;2022-09-03T07:03:44;23.60;56.10
2477;DHT22;1249;51.270;6.756;2022-09-03T07:06:14;23.70;56.10
2477;DHT22;1249;51.270;6.756;2022-09-03T07:08:42;23.70;55.60
2477;DHT22;1249;51.270;6.756;2022-09-03T07:11:11;23.70;56.00
2477;DHT22;1249;51.270;6.756;2022-09-03T07:13:39;23.60;54.20
2477;DHT22;1249;51.270;6.756;2022-09-03T07:16:08;23.70;57.20
2477;DHT22;1249;51.270;6.756;2022-09-03T07:18:36;23.80;56.30
2477;DHT22;1249;51.270;6.756;2022-09-03T07:21:05;23.80;56.40
2477;DHT22;1249;51.270;6.756;2022-09-03T07:23:35;23.90;56.10
2477;DHT22;1249;51.270;6.756;2022-09-03T07:26:04;24.00;56.80
2477;DHT22;1249;51.270;6.756;2022-09-03T07:28:33;24.00;58.00
2477;DHT22;1249;51.270;6.756;2022-09-03T07:31:02;24.10;59.80
2477;DHT22;1249;51.270;6.756;2022-09-03T07:33:29;24.20;60.80
2477;DHT22;1249;51.270;6.756;2022-09-03T07:36:01;24.30;62.20
2477;DHT22;1249;51.270;6.756;2022-09-03T07:38:28;24.30;59.80
2477;DHT22;1249;51.270;6.756;2022-09-03T07:40:58;24.30;61.30
2477;DHT22;1249;51.270;6.756;2022-09-03T07:43:26;24.30;59.40
2477;DHT22;1249;51.270;6.756;2022-09-03T07:45:53;24.40;59.50
2477;DHT22;1249;51.270;6.756;2022-09-03T07:48:21;24.40;58.90
2477;DHT22;1249;51.270;6.756;2022-09-03T07:50:48;24.40;58.80
2477;DHT22;1249;51.270;6.756;2022-09-03T07:53:15;24.40;58.50
2477;DHT22;1249;51.270;6.756;2022-09-03T07:55:42;24.40;58.30
2477;DHT22;1249;51.270;6.756;2022-09-03T07:58:11;24.40;58.10
2477;DHT22;1249;51.270;6.756;2022-09-03T08:00:39;24.50;57.60
2477;DHT22;1249;51.270;6.756;2022-09-03T08:03:06;24.50;57.80
2477;DHT22;1249;51.270;6.756;2022-09-03T08:05:34;24.60;58.00
2477;DHT22;1249;51.270;6.756;2022-09-03T08:08:02;24.60;58.00
2477;DHT22;1249;51.270;6.756;2022-09-03T08:10:29;24.60;58.40
2477;DHT22;1249;51.270;6.756;2022-09-03T08:12:57;24.60;59.70
2477;DHT22;1249;51.270;6.756;2022-09-03T08:15:26;24.70;61.10
2477;DHT22;1249;51.270;6.756;2022-09-03T08:17:52;24.80;59.70
2477;DHT22;1249;51.270;6.756;2022-09-03T08:20:19;24.80;59.30
2477;DHT22;1249;51.270;6.756;2022-09-03T08:22:46;24.90;57.90
2477;DHT22;1249;51.270;6.756;2022-09-03T08:25:14;24.90;56.70
2477;DHT22;1249;51.270;6.756;2022-09-03T08:27:41;25.00;57.40
2477;DHT22;1249;51.270;6.756;2022-09-03T08:30:08;25.00;56.20
2477;DHT22;1249;51.270;6.756;2022-09-03T08:32:37;25.10;56.00
2477;DHT22;1249;51.270;6.756;2022-09-03T08:35:05;25.30;56.80
2477;DHT22;1249;51.270;6.756;2022-09-03T08:37:33;25.20;56.20
2477;DHT22;1249;51.270;6.756;2022-09-03T08:40:00;25.20;56.50
2477;DHT22;1249;51.270;6.756;2022-09-03T08:42:40;25.30;55.70
2477;DHT22;1249;51.270;6.756;2022-09-03T08:45:19;25.40;55.30
2477;DHT22;1249;51.270;6.756;2022-09-03T08:47:53;25.40;55.10
2477;DHT22;1249;51.270;6.756;2022-09-03T08:50:25;25.40;56.10
2477;DHT22;1249;51.270;6.756;2022-09-03T08:52:54;25.50;55.60
2477;DHT22;1249;51.270;6.756;2022-09-03T08:55:26;25.50;55.60
2477;DHT22;1249;51.270;6.756;2022-09-03T08:57:59;25.60;53.30
2477;DHT22;1249;51.270;6.756;2022-09-03T09:00:37;25.70;55.20
2477;DHT22;1249;51.270;6.756;2022-09-03T09:03:25;25.70;55.40
2477;DHT22;1249;51.270;6.756;2022-09-03T09:06:02;25.80;54.30
2477;DHT22;1249;51.270;6.756;2022-09-03T09:08:36;25.80;53.90
2477;DHT22;1249;51.270;6.756;2022-09-03T09:11:14;25.90;53.30
2477;DHT22;1249;51.270;6.756;2022-09-03T09:13:52;26.00;55.10
2477;DHT22;1249;51.270;6.756;2022-09-03T09:16:28;26.00;55.00
2477;DHT22;1249;51.270;6.756;2022-09-03T09:19:12;26.00;54.90
2477;DHT22;1249;51.270;6.756;2022-09-03T09:21:42;26.00;54.40
2477;DHT22;1249;51.270;6.756;2022-09-03T09:24:18;26.00;54.90
2477;DHT22;1249;51.270;6.756;2022-09-03T09:26:48;26.10;52.50
2477;DHT22;1249;51.270;6.756;2022-09-03T09:29:16;26.20;53.60
2477;DHT22;1249;51.270;6.756;2022-09-03T09:31:42;26.30;53.80
2477;DHT22;1249;51.270;6.756;2022-09-03T09:34:11;26.40;53.60
2477;DHT22;1249;51.270;6.756;2022-09-03T09:36:42;26.60;53.70
2477;DHT22;1249;51.270;6.756;2022-09-03T09:39:11;26.80;52.20
2477;DHT22;1249;51.270;6.756;2022-09-03T09:41:40;26.90;50.60
2477;DHT22;1249;51.270;6.756;2022-09-03T09:44:16;27.10;51.40
2477;DHT22;1249;51.270;6.756;2022-09-03T09:46:43;27.20;50.10
2477;DHT22;1249;51.270;6.756;2022-09-03T09:49:28;27.40;50.40
2477;DHT22;1249;51.270;6.756;2022-09-03T09:52:00;27.50;50.30
2477;DHT22;1249;51.270;6.756;2022-09-03T09:54:28;27.60;49.50
2477;DHT22;1249;51.270;6.756;2022-09-03T09:57:00;27.80;50.10
2477;DHT22;1249;51.270;6.756;2022-09-03T09:59:28;27.90;50.30
2477;DHT22;1249;51.270;6.756;2022-09-03T10:02:08;28.10;50.00
2477;DHT22;1249;51.270;6.756;2022-09-03T10:04:36;28.20;49.40
2477;DHT22;1249;51.270;6.756;2022-09-03T10:07:14;28.40;50.00
2477;DHT22;1249;51.270;6.756;2022-09-03T10:09:44;28.50;49.40
2477;DHT22;1249;51.270;6.756;2022-09-03T10:14:44;28.70;49.00
2477;DHT22;1249;51.270;6.756;2022-09-03T10:17:17;28.80;49.40
2477;DHT22;1249;51.270;6.756;2022-09-03T10:19:55;28.90;49.30
2477;DHT22;1249;51.270;6.756;2022-09-03T10:22:46;29.00;49.10
2477;DHT22;1249;51.270;6.756;2022-09-03T10:25:17;29.10;49.20
2477;DHT22;1249;51.270;6.756;2022-09-03T10:27:45;29.20;48.90
2477;DHT22;1249;51.270;6.756;2022-09-03T10:30:13;29.30;48.90
2477;DHT22;1249;51.270;6.756;2022-09-03T10:32:45;29.40;49.00
2477;DHT22;1249;51.270;6.756;2022-09-03T10:35:22;29.50;49.20
2477;DHT22;1249;51.270;6.756;2022-09-03T10:37:59;29.50;48.70
2477;DHT22;1249;51.270;6.756;2022-09-03T10:40:34;29.60;48.40
2477;DHT22;1249;51.270;6.756;2022-09-03T10:43:31;29.70;47.80
2477;DHT22;1249;51.270;6.756;2022-09-03T10:46:01;29.70;49.10
2477;DHT22;1249;51.270;6.756;2022-09-03T10:51:25;30.00;48.80
2477;DHT22;1249;51.270;6.756;2022-09-03T10:54:17;30.00;48.50
2477;DHT22;1249;51.270;6.756;2022-09-03T10:56:53;30.10;48.30
2477;DHT22;1249;51.270;6.756;2022-09-03T10:59:31;30.10;48.80
2477;DHT22;1249;51.270;6.756;2022-09-03T11:02:16;30.20;48.40
2477;DHT22;1249;51.270;6.756;2022-09-03T11:04:52;30.20;48.50
2477;DHT22;1249;51.270;6.756;2022-09-03T11:07:26;30.20;47.30
2477;DHT22;1249;51.270;6.756;2022-09-03T11:09:59;30.20;47.60
2477;DHT22;1249;51.270;6.756;2022-09-03T11:12:31;30.20;48.60
2477;DHT22;1249;51.270;6.756;2022-09-03T11:15:03;30.30;48.00
2477;DHT22;1249;51.270;6.756;2022-09-03T11:17:36;30.30;47.80
2477;DHT22;1249;51.270;6.756;2022-09-03T11:20:10;30.30;48.30
2477;DHT22;1249;51.270;6.756;2022-09-03T11:22:39;30.20;48.50
2477;DHT22;1249;51.270;6.756;2022-09-03T11:25:09;30.30;48.20
2477;DHT22;1249;51.270;6.756;2022-09-03T11:27:53;30.30;48.30
2477;DHT22;1249;51.270;6.756;2022-09-03T11:30:25;30.10;48.70
2477;DHT22;1249;51.270;6.756;2022-09-03T11:32:58;30.30;49.30
2477;DHT22;1249;51.270;6.756;2022-09-03T11:35:28;30.40;49.70
2477;DHT22;1249;51.270;6.756;2022-09-03T11:38:06;30.60;48.50
2477;DHT22;1249;51.270;6.756;2022-09-03T11:40:37;30.80;48.60
2477;DHT22;1249;51.270;6.756;2022-09-03T11:43:07;31.00;48.40
2477;DHT22;1249;51.270;6.756;2022-09-03T11:45:37;31.30;48.30
2477;DHT22;1249;51.270;6.756;2022-09-03T11:48:30;31.50;48.50
2477;DHT22;1249;51.270;6.756;2022-09-03T11:50:59;31.80;47.10
2477;DHT22;1249;51.270;6.756;2022-09-03T11:53:33;32.10;47.00
2477;DHT22;1249;51.270;6.756;2022-09-03T11:56:11;32.10;46.40
2477;DHT22;1249;51.270;6.756;2022-09-03T11:58:42;32.10;46.10
2477;DHT22;1249;51.270;6.756;2022-09-03T12:01:11;32.00;46.00
2477;DHT22;1249;51.270;6.756;2022-09-03T12:03:42;31.90;47.00
2477;DHT22;1249;51.270;6.756;2022-09-03T12:06:39;31.80;46.60
2477;DHT22;1249;51.270;6.756;2022-09-03T12:09:25;31.80;46.80
2477;DHT22;1249;51.270;6.756;2022-09-03T12:12:07;31.80;47.70
2477;DHT22;1249;51.270;6.756;2022-09-03T12:14:42;32.10;47.40
2477;DHT22;1249;51.270;6.756;2022-09-03T12:17:22;32.30;46.00
2477;DHT22;1249;51.270;6.756;2022-09-03T12:19:52;32.30;47.20
2477;DHT22;1249;51.270;6.756;2022-09-03T12:22:22;32.50;47.00
2477;DHT22;1249;51.270;6.756;2022-09-03T12:24:50;32.80;46.00
2477;DHT22;1249;51.270;6.756;2022-09-03T12:27:19;33.10;45.30
2477;DHT22;1249;51.270;6.756;2022-09-03T12:29:51;33.20;45.50
2477;DHT22;1249;51.270;6.756;2022-09-03T12:32:25;33.30;44.60
2477;DHT22;1249;51.270;6.756;2022-09-03T12:34:52;33.40;44.70
2477;DHT22;1249;51.270;6.756;2022-09-03T12:37:21;33.60;43.90
2477;DHT22;1249;51.270;6.756;2022-09-03T12:39:54;33.70;44.40
2477;DHT22;1249;51.270;6.756;2022-09-03T12:42:26;33.80;44.90
2477;DHT22;1249;51.270;6.756;2022-09-03T12:44:53;34.00;45.30
2477;DHT22;1249;51.270;6.756;2022-09-03T12:47:23;34.20;45.10
2477;DHT22;1249;51.270;6.756;2022-09-03T12:49:51;34.30;45.50
2477;DHT22;1249;51.270;6.756;2022-09-03T12:52:24;34.50;44.60
2477;DHT22;1249;51.270;6.756;2022-09-03T12:54:57;34.60;45.60
2477;DHT22;1249;51.270;6.756;2022-09-03T12:57:30;34.70;45.20
2477;DHT22;1249;51.270;6.756;2022-09-03T13:00:03;34.70;45.30
2477;DHT22;1249;51.270;6.756;2022-09-03T13:02:37;34.70;45.00
2477;DHT22;1249;51.270;6.756;2022-09-03T13:05:11;34.80;45.60
2477;DHT22;1249;51.270;6.756;2022-09-03T13:07:45;34.80;45.40
2477;DHT22;1249;51.270;6.756;2022-09-03T13:10:24;34.80;45.50
2477;DHT22;1249;51.270;6.756;2022-09-03T13:12:56;34.90;45.80
2477;DHT22;1249;51.270;6.756;2022-09-03T13:15:25;35.10;44.80
2477;DHT22;1249;51.270;6.756;2022-09-03T13:18:01;35.20;45.00
2477;DHT22;1249;51.270;6.756;2022-09-03T13:20:34;35.40;45.30
2477;DHT22;1249;51.270;6.756;2022-09-03T13:23:13;35.50;45.30
2477;DHT22;1249;51.270;6.756;2022-09-03T13:25:55;35.60;45.20
2477;DHT22;1249;51.270;6.756;2022-09-03T13:28:31;35.70;45.30
2477;DHT22;1249;51.270;6.756;2022-09-03T13:31:09;35.80;44.80
2477;DHT22;1249;51.270;6.756;2022-09-03T13:33:50;36.00;44.60
2477;DHT22;1249;51.270;6.756;2022-09-03T13:36:21;36.10;44.50
2477;DHT22;1249;51.270;6.756;2022-09-03T13:38:53;36.10;44.30
2477;DHT22;1249;51.270;6.756;2022-09-03T13:41:34;36.20;43.30
2477;DHT22;1249;51.270;6.756;2022-09-03T13:44:06;36.30;44.10
2477;DHT22;1249;51.270;6.756;2022-09-03T13:46:40;36.40;44.20
2477;DHT22;1249;51.270;6.756;2022-09-03T13:49:20;36.50;43.70
2477;DHT22;1249;51.270;6.756;2022-09-03T13:52:12;36.60;44.00
2477;DHT22;1249;51.270;6.756;2022-09-03T13:54:51;36.70;43.80
2477;DHT22;1249;51.270;6.756;2022-09-03T13:57:29;36.80;42.80
2477;DHT22;1249;51.270;6.756;2022-09-03T14:00:01;36.90;42.60
2477;DHT22;1249;51.270;6.756;2022-09-03T14:02:41;37.00;42.30
2477;DHT22;1249;51.270;6.756;2022-09-03T14:05:14;37.00;42.00
2477;DHT22;1249;51.270;6.756;2022-09-03T14:07:48;37.10;42.80
2477;DHT22;1249;51.270;6.756;2022-09-03T14:10:26;37.00;42.60
2477;DHT22;1249;51.270;6.756;2022-09-03T14:13:05;37.10;42.20
2477;DHT22;1249;51.270;6.756;2022-09-03T14:15:35;37.10;41.30
2477;DHT22;1249;51.270;6.756;2022-09-03T14:18:11;37.10;41.30
2477;DHT22;1249;51.270;6.756;2022-09-03T14:20:44;37.00;41.60
2477;DHT22;1249;51.270;6.756;2022-09-03T14:23:24;37.00;41.70
2477;DHT22;1249;51.270;6.756;2022-09-03T14:25:53;37.00;41.60
2477;DHT22;1249;51.270;6.756;2022-09-03T14:28:29;37.00;41.90
2477;DHT22;1249;51.270;6.756;2022-09-03T14:31:05;37.10;42.30
2477;DHT22;1249;51.270;6.756;2022-09-03T14:33:38;37.00;42.40
2477;DHT22;1249;51.270;6.756;2022-09-03T14:36:17;37.00;42.40
2477;DHT22;1249;51.270;6.756;2022-09-03T14:41:54;37.10;40.50
2477;DHT22;1249;51.270;6.756;2022-09-03T14:44:43;37.10;41.50
2477;DHT22;1249;51.270;6.756;2022-09-03T14:47:27;36.90;42.40
2477;DHT22;1249;51.270;6.756;2022-09-03T14:50:13;36.80;42.40
2477;DHT22;1249;51.270;6.756;2022-09-03T14:53:10;36.80;43.10
2477;DHT22;1249;51.270;6.756;2022-09-03T14:56:02;36.70;43.00
2477;DHT22;1249;51.270;6.756;2022-09-03T14:58:42;36.70;43.30
2477;DHT22;1249;51.270;6.756;2022-09-03T15:01:17;36.70;42.10
2477;DHT22;1249;51.270;6.756;2022-09-03T15:03:58;36.60;41.70
2477;DHT22;1249;51.270;6.756;2022-09-03T15:06:39;36.60;41.90
2477;DHT22;1249;51.270;6.756;2022-09-03T15:09:22;36.60;42.50
2477;DHT22;1249;51.270;6.756;2022-09-03T15:11:56;36.50;42.30
2477;DHT22;1249;51.270;6.756;2022-09-03T15:14:29;36.40;43.30
2477;DHT22;1249;51.270;6.756;2022-09-03T15:17:16;36.30;42.40
2477;DHT22;1249;51.270;6.756;2022-09-03T15:19:56;36.30;41.40
2477;DHT22;1249;51.270;6.756;2022-09-03T15:22:36;36.20;41.70
2477;DHT22;1249;51.270;6.756;2022-09-03T15:25:16;36.10;42.40
2477;DHT22;1249;51.270;6.756;2022-09-03T15:28:04;36.10;42.70
2477;DHT22;1249;51.270;6.756;2022-09-03T15:30:35;35.90;43.30
2477;DHT22;1249;51.270;6.756;2022-09-03T15:33:15;35.80;43.00
2477;DHT22;1249;51.270;6.756;2022-09-03T15:36:05;35.70;41.90
2477;DHT22;1249;51.270;6.756;2022-09-03T15:38:41;35.50;43.40
2477;DHT22;1249;51.270;6.756;2022-09-03T15:41:19;35.40;43.50
2477;DHT22;1249;51.270;6.756;2022-09-03T15:43:48;35.20;45.00
2477;DHT22;1249;51.270;6.756;2022-09-03T15:46:34;35.10;45.00
2477;DHT22;1249;51.270;6.756;2022-09-03T15:49:09;34.90;45.60
2477;DHT22;1249;51.270;6.756;2022-09-03T15:51:41;34.80;45.70
2477;DHT22;1249;51.270;6.756;2022-09-03T15:54:18;34.70;46.00
2477;DHT22;1249;51.270;6.756;2022-09-03T15:56:57;34.70;46.00
2477;DHT22;1249;51.270;6.756;2022-09-03T15:59:31;34.70;46.50
2477;DHT22;1249;51.270;6.756;2022-09-03T16:02:05;34.60;47.00
2477;DHT22;1249;51.270;6.756;2022-09-03T16:04:48;34.60;45.40
2477;DHT22;1249;51.270;6.756;2022-09-03T16:07:22;34.50;45.60
2477;DHT22;1249;51.270;6.756;2022-09-03T16:09:58;34.40;46.40
2477;DHT22;1249;51.270;6.756;2022-09-03T16:12:33;34.40;46.10
2477;DHT22;1249;51.270;6.756;2022-09-03T16:15:04;34.30;45.90
2477;DHT22;1249;51.270;6.756;2022-09-03T16:17:35;34.20;46.10
2477;DHT22;1249;51.270;6.756;2022-09-03T16:20:08;34.10;46.60
2477;DHT22;1249;51.270;6.756;2022-09-03T16:22:45;34.00;46.20
2477;DHT22;1249;51.270;6.756;2022-09-03T16:25:15;33.90;46.60
2477;DHT22;1249;51.270;6.756;2022-09-03T16:27:52;33.80;47.60
2477;DHT22;1249;51.270;6.756;2022-09-03T16:30:32;33.70;47.40
2477;DHT22;1249;51.270;6.756;2022-09-03T16:33:09;33.60;47.60
2477;DHT22;1249;51.270;6.756;2022-09-03T16:35:48;33.50;47.20
2477;DHT22;1249;51.270;6.756;2022-09-03T16:38:26;33.40;47.50
2477;DHT22;1249;51.270;6.756;2022-09-03T16:41:00;33.30;47.50
2477;DHT22;1249;51.270;6.756;2022-09-03T16:43:42;33.20;47.60
2477;DHT22;1249;51.270;6.756;2022-09-03T16:46:20;33.10;47.80
2477;DHT22;1249;51.270;6.756;2022-09-03T16:48:56;33.10;47.40